RU-0406 weather

Novodmitriyevskaya Airstrip
Novodmitriyevskaya, Krasnodar Krai, Russia

Public forecast

Using degrees Celsius for public forecast. Weather courtesy of forecast.io.

Closest aviation weather report (METAR) to Novodmitriyevskaya Airstrip

Closest report is Krasnodar Pashkovsky International Airport, 16.1 nm (29.8 km) NE. Retrieved 2019/10/18 12:30 UTC (0 seconds ago):

URKK 181230Z VRB01MPS CAVOK 22/14 Q1017 R23L/CLRD70 NOSIG RMK QFE759

Closest aviation forecast (TAF) to Novodmitriyevskaya Airstrip

Closest forecast is Krasnodar Pashkovsky International Airport, 16.1 nm (29.8 km) NE. Retrieved 2019/10/18 12:21 UTC (0 seconds ago):

TAF URKK 181058Z 1812/1912 33003G08MPS 9999 SCT030 BECMG 1815/1816 3100 BR SCT007 BKN030 TEMPO 1816/1909 0200 FG OVC002 FM190900 04003G08MPS 9999 SCT011 BKN030 TEMPO 1909/1912 3100 BR SCT007 BKN020